Time;durP1;ratioP1;P1;durP2;ratioP2;P2;SDS_P1;SDS_P2;PMS_P1;PMS_P2;Temp;Humidity;BMP_temperature;BMP_pressure;BME280_temperature;BME280_humidity;BME280_pressure;Samples;Min_cycle;Max_cycle;Signal;HPM_P1;HPM_P2
2022/11/22 00:00:03;;;;;;;30.60;16.98;;;0.80;99.90;;;;;;5074042;28;20254;-60
2022/11/22 00:02:31;;;;;;;32.38;17.00;;;0.80;99.90;;;;;;5074104;28;20649;-59
2022/11/22 00:04:58;;;;;;;28.33;16.85;;;0.90;99.90;;;;;;5074051;28;20228;-61
2022/11/22 00:07:25;;;;;;;28.42;16.35;;;0.90;99.90;;;;;;5073290;28;20579;-59
2022/11/22 00:09:52;;;;;;;32.72;17.20;;;0.90;99.90;;;;;;5074058;28;20204;-61
2022/11/22 00:12:18;;;;;;;34.38;16.60;;;0.90;99.90;;;;;;5073906;28;20208;-60
2022/11/22 00:14:45;;;;;;;35.45;17.95;;;0.90;99.90;;;;;;5073736;28;20228;-60
2022/11/22 00:17:12;;;;;;;37.00;18.90;;;0.90;99.90;;;;;;5073896;28;20205;-61
2022/11/22 00:19:41;;;;;;;34.25;17.92;;;0.90;99.90;;;;;;5073783;28;20664;-61
2022/11/22 00:22:08;;;;;;;28.85;16.85;;;1.00;99.90;;;;;;5074221;28;20201;-61
2022/11/22 00:24:35;;;;;;;35.75;17.50;;;1.00;99.90;;;;;;5074189;28;20312;-61
2022/11/22 00:27:02;;;;;;;34.40;17.55;;;1.00;99.90;;;;;;5077818;28;20208;-60
2022/11/22 00:29:28;;;;;;;39.90;17.20;;;1.00;99.90;;;;;;5078471;28;20220;-61
2022/11/22 00:31:55;;;;;;;35.75;16.95;;;1.00;99.90;;;;;;5078502;28;20200;-59
2022/11/22 00:34:22;;;;;;;31.77;16.42;;;1.10;99.90;;;;;;5077676;28;20548;-59
2022/11/22 00:36:50;;;;;;;34.78;17.13;;;1.10;99.90;;;;;;5076357;28;20680;-60
2022/11/22 00:39:17;;;;;;;32.17;15.48;;;1.10;99.90;;;;;;5078208;28;20694;-60
2022/11/22 00:41:43;;;;;;;41.17;18.75;;;1.10;99.90;;;;;;5078039;28;20244;-62
2022/11/22 00:44:10;;;;;;;34.38;17.65;;;1.10;99.90;;;;;;5077709;28;20228;-60
2022/11/22 00:46:37;;;;;;;35.80;18.85;;;1.10;99.90;;;;;;5076889;28;20691;-60
2022/11/22 00:49:03;;;;;;;40.85;18.55;;;1.10;99.90;;;;;;5077441;28;20223;-61
2022/11/22 00:51:30;;;;;;;39.78;17.52;;;1.20;99.90;;;;;;5077195;28;20200;-61
2022/11/22 00:53:58;;;;;;;37.58;18.13;;;1.20;99.90;;;;;;5076834;28;20224;-60
2022/11/22 00:56:25;;;;;;;32.30;17.90;;;1.20;99.90;;;;;;5077382;28;20209;-60
2022/11/22 00:58:52;;;;;;;46.38;20.25;;;1.20;99.90;;;;;;5077880;28;20201;-60
2022/11/22 01:01:18;;;;;;;44.65;20.52;;;1.20;99.90;;;;;;5076939;28;20215;-61
2022/11/22 01:03:45;;;;;;;46.35;18.85;;;1.20;99.90;;;;;;5076632;28;20221;-61
2022/11/22 01:06:12;;;;;;;41.47;19.45;;;1.20;99.90;;;;;;5076440;28;20205;-60
2022/11/22 01:08:39;;;;;;;35.05;18.30;;;1.20;99.90;;;;;;5076177;28;20205;-60
2022/11/22 01:11:07;;;;;;;38.53;20.50;;;1.20;99.90;;;;;;5076277;28;20212;-59
2022/11/22 01:13:34;;;;;;;42.72;21.08;;;1.20;99.90;;;;;;5076014;28;20205;-60
2022/11/22 01:16:01;;;;;;;38.30;19.08;;;1.20;99.90;;;;;;5076139;28;20225;-60
2022/11/22 01:18:28;;;;;;;41.75;19.45;;;1.20;99.90;;;;;;5076232;28;20201;-61
2022/11/22 01:20:55;;;;;;;42.30;19.58;;;1.20;99.90;;;;;;5076410;28;20228;-60
2022/11/22 01:23:22;;;;;;;42.55;19.60;;;1.20;99.90;;;;;;5075748;28;20573;-61
2022/11/22 01:25:49;;;;;;;37.72;18.15;;;1.30;99.90;;;;;;5075796;28;20205;-61
2022/11/22 01:28:17;;;;;;;37.88;18.42;;;1.30;99.90;;;;;;5076077;28;20201;-60
2022/11/22 01:30:44;;;;;;;40.53;22.10;;;1.30;99.90;;;;;;5078393;28;20209;-61
2022/11/22 01:33:11;;;;;;;39.92;21.77;;;1.30;99.90;;;;;;5082013;28;20228;-61
2022/11/22 01:35:38;;;;;;;37.90;18.38;;;1.40;99.90;;;;;;5084969;28;20594;-61
2022/11/22 01:38:05;;;;;;;35.72;20.73;;;1.40;99.90;;;;;;5080925;28;20212;-60
2022/11/22 01:40:31;;;;;;;34.63;18.50;;;1.40;99.90;;;;;;5082460;28;20197;-61
2022/11/22 01:43:00;;;;;;;41.55;19.52;;;1.40;99.90;;;;;;5088561;28;20205;-60
2022/11/22 01:45:45;;;;;;;38.78;19.10;;;1.40;99.90;;;;;;5087141;28;20290;-60
2022/11/22 01:48:37;;;;;;;32.75;20.40;;;1.50;99.90;;;;;;5086284;28;20192;-61
2022/11/22 01:51:14;;;;;;;38.50;18.48;;;1.50;99.90;;;;;;5081710;28;20211;-60
2022/11/22 01:53:41;;;;;;;44.78;24.17;;;1.50;99.90;;;;;;5083828;28;20411;-61
2022/11/22 01:56:12;;;;;;;36.72;19.52;;;1.50;99.90;;;;;;5085042;28;20221;-60
2022/11/22 01:58:42;;;;;;;39.97;20.27;;;1.50;99.90;;;;;;5083547;28;20637;-61
2022/11/22 02:01:11;;;;;;;44.28;20.70;;;1.50;99.90;;;;;;5083470;28;20208;-61
2022/11/22 02:03:41;;;;;;;38.20;20.05;;;1.50;99.90;;;;;;5082867;28;20212;-61
2022/11/22 02:06:08;;;;;;;41.05;19.60;;;1.60;99.90;;;;;;5082712;28;20562;-61
2022/11/22 02:08:39;;;;;;;43.55;19.60;;;1.60;99.90;;;;;;5082408;28;20201;-61
2022/11/22 02:11:08;;;;;;;37.28;18.80;;;1.60;99.90;;;;;;5081783;28;20192;-61
2022/11/22 02:13:39;;;;;;;39.15;18.92;;;1.60;99.90;;;;;;5081086;28;20235;-60
2022/11/22 02:16:06;;;;;;;31.13;18.70;;;1.60;99.90;;;;;;5078320;28;20209;-61
2022/11/22 02:18:36;;;;;;;42.40;23.10;;;1.60;99.90;;;;;;5076464;28;20415;-61
2022/11/22 02:21:04;;;;;;;42.03;23.95;;;1.60;99.90;;;;;;5075470;28;20416;-60
2022/11/22 02:23:41;;;;;;;43.28;23.08;;;1.70;99.90;;;;;;5075922;28;20212;-62
2022/11/22 02:26:09;;;;;;;41.70;23.70;;;1.60;99.90;;;;;;5074654;28;20521;-62
2022/11/22 02:28:38;;;;;;;40.65;24.13;;;1.60;99.90;;;;;;5073901;28;20418;-61
2022/11/22 02:31:05;;;;;;;45.47;24.73;;;1.60;99.90;;;;;;5073610;28;20408;-61
2022/11/22 02:33:32;;;;;;;40.42;23.00;;;1.60;99.90;;;;;;5073658;28;20419;-60
2022/11/22 02:35:59;;;;;;;43.65;24.48;;;1.60;99.90;;;;;;5073480;28;20427;-61
2022/11/22 02:38:30;;;;;;;37.85;21.70;;;1.70;99.90;;;;;;5074587;28;20439;-62
2022/11/22 02:41:00;;;;;;;38.30;22.20;;;1.70;99.90;;;;;;5074888;28;20211;-62
2022/11/22 02:43:31;;;;;;;35.88;18.38;;;1.70;99.90;;;;;;5074526;28;20201;-62
2022/11/22 02:46:03;;;;;;;35.83;18.25;;;1.70;99.90;;;;;;5074203;28;20557;-61
2022/11/22 02:48:30;;;;;;;28.05;17.50;;;1.60;99.90;;;;;;5073838;28;20200;-60
2022/11/22 02:50:56;;;;;;;37.42;19.17;;;1.60;99.90;;;;;;5074221;28;20207;-61
2022/11/22 02:53:23;;;;;;;32.03;18.05;;;1.60;99.90;;;;;;5074387;28;20196;-61
2022/11/22 02:55:50;;;;;;;36.20;18.08;;;1.70;99.90;;;;;;5074146;28;20220;-61
2022/11/22 02:58:16;;;;;;;31.67;17.05;;;1.70;99.90;;;;;;5074526;28;20205;-61
2022/11/22 03:00:44;;;;;;;32.63;18.17;;;1.70;99.90;;;;;;5074281;28;20227;-62
2022/11/22 03:03:11;;;;;;;33.15;17.42;;;1.70;99.90;;;;;;5074063;28;20208;-62
2022/11/22 03:05:38;;;;;;;30.75;18.13;;;1.70;99.90;;;;;;5074120;28;20237;-62
2022/11/22 03:08:05;;;;;;;32.55;18.20;;;1.70;99.90;;;;;;5074067;28;20601;-61
2022/11/22 03:10:31;;;;;;;27.48;17.38;;;1.70;99.90;;;;;;5074287;28;20196;-61
2022/11/22 03:12:58;;;;;;;31.85;17.33;;;1.70;99.90;;;;;;5080960;28;20227;-61
2022/11/22 03:15:25;;;;;;;40.35;23.90;;;1.60;99.90;;;;;;5072881;28;20435;-61
2022/11/22 03:17:58;;;;;;;44.58;22.73;;;1.60;99.90;;;;;;5074471;28;20212;-61
2022/11/22 03:20:25;;;;;;;39.47;22.38;;;1.60;99.90;;;;;;5073974;28;20571;-61
2022/11/22 03:22:52;;;;;;;43.42;23.23;;;1.60;99.90;;;;;;5073957;28;20201;-62
2022/11/22 03:25:19;;;;;;;41.53;20.98;;;1.60;99.90;;;;;;5073719;28;20221;-61
2022/11/22 03:27:46;;;;;;;46.22;24.95;;;1.60;99.90;;;;;;5072763;28;20430;-61
2022/11/22 03:30:14;;;;;;;41.15;24.13;;;1.60;99.90;;;;;;5073730;28;20224;-60
2022/11/22 03:32:41;;;;;;;37.90;20.33;;;1.60;99.90;;;;;;5074175;28;20205;-61
2022/11/22 03:35:10;;;;;;;38.20;22.98;;;1.60;99.90;;;;;;5074194;28;20247;-60
2022/11/22 03:37:37;;;;;;;41.40;21.70;;;1.60;99.90;;;;;;5074328;28;20201;-62
2022/11/22 03:40:04;;;;;;;44.63;21.95;;;1.60;99.90;;;;;;5074533;28;20598;-61
2022/11/22 03:42:31;;;;;;;38.17;20.63;;;1.70;99.90;;;;;;5074112;28;20212;-61
2022/11/22 03:44:58;;;;;;;39.58;21.85;;;1.60;99.90;;;;;;5074090;28;20228;-59
2022/11/22 03:47:25;;;;;;;47.03;23.65;;;1.60;99.90;;;;;;5073950;28;20684;-61
2022/11/22 03:49:52;;;;;;;39.47;21.52;;;1.60;99.90;;;;;;5074092;28;20205;-61
2022/11/22 03:52:20;;;;;;;38.55;21.23;;;1.60;99.90;;;;;;5074288;28;20200;-61
2022/11/22 03:54:46;;;;;;;35.97;19.20;;;1.70;99.90;;;;;;5074075;28;20217;-61
2022/11/22 03:57:14;;;;;;;44.35;22.15;;;1.60;99.90;;;;;;5074042;28;20200;-59
2022/11/22 03:59:41;;;;;;;36.60;20.90;;;1.60;99.90;;;;;;5073858;28;20673;-60
2022/11/22 04:02:08;;;;;;;40.60;22.33;;;1.60;99.90;;;;;;5073294;28;20197;-61
2022/11/22 04:04:34;;;;;;;36.95;21.35;;;1.60;99.90;;;;;;5073883;28;20221;-61
2022/11/22 04:07:01;;;;;;;41.78;21.27;;;1.60;99.90;;;;;;5074129;28;20204;-61
2022/11/22 04:10:36;;;;;;;40.17;20.40;;;1.60;99.90;;;;;;5091216;27;20549;-60
2022/11/22 04:13:03;;;;;;;30.50;18.88;;;1.60;99.90;;;;;;5091355;28;20212;-61
2022/11/22 04:15:28;;;;;;;37.13;20.35;;;1.60;99.90;;;;;;5090905;28;20216;-60
2022/11/22 04:17:55;;;;;;;35.00;20.90;;;1.60;99.90;;;;;;5091253;28;20207;-60
2022/11/22 04:23:11;;;;;;;36.05;21.63;;;1.60;99.90;;;;;;5112596;22;20456;-59
2022/11/22 04:25:40;;;;;;;35.45;18.95;;;1.60;99.90;;;;;;5070724;28;20185;-61
2022/11/22 04:28:10;;;;;;;37.10;20.25;;;1.70;99.90;;;;;;5070519;28;20224;-60
2022/11/22 04:33:21;;;;;;;42.55;20.80;;;1.70;99.90;;;;;;5070804;28;20274;-59
2022/11/22 04:35:48;;;;;;;41.30;22.02;;;1.70;99.90;;;;;;5070778;28;20308;-60
2022/11/22 04:38:16;;;;;;;43.45;20.58;;;1.70;99.90;;;;;;5070730;28;20203;-60
2022/11/22 04:40:45;;;;;;;35.47;21.48;;;1.70;99.90;;;;;;5070790;28;20204;-60
2022/11/22 04:46:03;;;;;;;35.55;19.63;;;1.70;99.90;;;;;;5072717;28;20240;-60
2022/11/22 04:48:29;;;;;;;35.55;18.35;;;1.70;99.90;;;;;;5070173;28;20204;-60
2022/11/22 04:53:40;;;;;;;40.50;20.63;;;1.80;99.90;;;;;;5070049;28;20295;-60
2022/11/22 04:56:08;;;;;;;36.55;18.48;;;1.80;99.90;;;;;;5069484;28;20696;-60
2022/11/22 04:58:35;;;;;;;31.88;17.60;;;1.80;99.90;;;;;;5069974;28;20209;-61
2022/11/22 05:01:02;;;;;;;37.72;19.77;;;1.80;99.90;;;;;;5069808;28;20201;-60
2022/11/22 05:03:28;;;;;;;36.22;20.08;;;1.80;99.90;;;;;;5070492;28;20225;-58
2022/11/22 05:05:55;;;;;;;34.67;19.42;;;1.90;99.90;;;;;;5069955;28;20197;-61
2022/11/22 05:08:22;;;;;;;39.30;19.83;;;1.90;99.90;;;;;;5069400;28;20685;-61
2022/11/22 05:10:58;;;;;;;38.72;20.38;;;1.90;99.90;;;;;;5069818;28;20201;-60
2022/11/22 05:13:29;;;;;;;31.67;18.75;;;1.90;99.90;;;;;;5069958;28;20225;-59
2022/11/22 05:15:56;;;;;;;33.33;18.77;;;2.00;99.90;;;;;;5069678;28;20582;-60
2022/11/22 05:18:24;;;;;;;34.22;19.67;;;1.90;99.90;;;;;;5070680;28;20201;-59
2022/11/22 05:20:51;;;;;;;36.70;20.40;;;2.00;99.90;;;;;;5063930;28;20210;-60
2022/11/22 05:26:05;;;;;;;33.55;19.20;;;2.00;99.90;;;;;;5059012;28;20204;-59
2022/11/22 05:28:35;;;;;;;34.58;20.38;;;2.00;99.90;;;;;;5059149;28;20205;-61
2022/11/22 05:31:07;;;;;;;29.35;18.08;;;2.00;99.90;;;;;;5059306;28;20190;-61
2022/11/22 05:33:35;;;;;;;34.45;17.50;;;2.10;99.90;;;;;;5058508;28;20221;-61
2022/11/22 05:36:02;;;;;;;27.02;17.73;;;2.00;99.90;;;;;;5056964;28;20566;-60
2022/11/22 05:38:29;;;;;;;39.55;22.80;;;2.00;99.90;;;;;;5054967;28;20413;-59
2022/11/22 05:40:56;;;;;;;39.75;23.27;;;2.00;99.90;;;;;;5056103;28;20414;-60
2022/11/22 05:43:23;;;;;;;38.97;23.98;;;2.00;99.90;;;;;;5055746;28;20424;-62
2022/11/22 05:45:51;;;;;;;41.35;23.83;;;2.10;99.90;;;;;;5055856;28;20417;-59
2022/11/22 05:48:18;;;;;;;39.83;24.17;;;2.10;99.90;;;;;;5055437;28;20418;-61
2022/11/22 05:50:45;;;;;;;35.95;21.88;;;2.10;99.90;;;;;;5058937;28;20218;-61
2022/11/22 05:53:12;;;;;;;35.47;18.00;;;2.10;99.90;;;;;;5056769;28;20237;-60
2022/11/22 05:55:38;;;;;;;31.30;18.90;;;2.10;99.90;;;;;;5057878;28;20670;-62
2022/11/22 05:58:05;;;;;;;30.30;19.05;;;2.10;99.90;;;;;;5058157;28;20545;-61
2022/11/22 06:00:32;;;;;;;28.02;17.90;;;2.20;99.90;;;;;;5058058;28;20202;-58
2022/11/22 06:03:04;;;;;;;32.67;19.38;;;2.10;99.90;;;;;;5058444;28;20206;-59
2022/11/22 06:05:31;;;;;;;32.28;17.70;;;2.10;99.90;;;;;;5058150;28;20198;-60
2022/11/22 06:08:00;;;;;;;31.00;17.90;;;2.10;99.90;;;;;;5059328;28;20682;-61
2022/11/22 06:10:27;;;;;;;34.17;18.52;;;2.10;99.90;;;;;;5058688;28;20308;-60
2022/11/22 06:12:54;;;;;;;31.05;18.23;;;2.10;99.90;;;;;;5057998;28;20197;-61
2022/11/22 06:15:21;;;;;;;31.05;18.75;;;2.20;99.90;;;;;;5059160;28;20205;-60
2022/11/22 06:17:47;;;;;;;30.20;18.13;;;2.20;99.90;;;;;;5059078;28;20202;-62
2022/11/22 06:20:16;;;;;;;32.53;19.08;;;2.20;99.90;;;;;;5056300;28;20413;-61
2022/11/22 06:22:43;;;;;;;41.83;23.33;;;2.30;99.90;;;;;;5058696;28;20417;-59
2022/11/22 06:25:10;;;;;;;31.63;19.65;;;2.30;99.90;;;;;;5056293;28;20468;-58
2022/11/22 06:27:37;;;;;;;31.48;19.60;;;2.30;99.90;;;;;;5055235;28;20708;-60
2022/11/22 06:30:06;;;;;;;29.27;16.25;;;2.30;99.90;;;;;;5056355;28;20218;-61
2022/11/22 06:32:33;;;;;;;30.80;17.65;;;2.30;99.90;;;;;;5056710;28;20677;-60
2022/11/22 06:35:01;;;;;;;29.48;18.60;;;2.30;99.90;;;;;;5057761;28;20221;-60
2022/11/22 06:37:29;;;;;;;26.50;15.77;;;2.40;99.90;;;;;;5055970;28;20201;-59
2022/11/22 06:39:56;;;;;;;27.63;17.60;;;2.40;99.90;;;;;;5056751;28;20197;-61
2022/11/22 06:42:23;;;;;;;28.80;17.95;;;2.40;99.90;;;;;;5058028;28;20201;-60
2022/11/22 06:44:49;;;;;;;23.60;16.92;;;2.40;99.90;;;;;;5055683;28;20226;-58
2022/11/22 06:47:17;;;;;;;27.55;16.88;;;2.40;99.90;;;;;;5055442;28;20205;-59
2022/11/22 06:49:44;;;;;;;31.92;17.17;;;2.40;99.90;;;;;;5054910;28;20218;-58
2022/11/22 06:52:11;;;;;;;27.20;16.10;;;2.40;99.90;;;;;;5055970;28;20205;-61
2022/11/22 06:54:40;;;;;;;27.02;17.67;;;2.40;99.90;;;;;;5055684;28;20232;-59
2022/11/22 06:57:06;;;;;;;27.95;16.23;;;2.40;99.90;;;;;;5055628;28;20212;-57
2022/11/22 06:59:34;;;;;;;26.40;15.25;;;2.40;99.90;;;;;;5055286;28;20198;-60
2022/11/22 07:02:01;;;;;;;28.10;16.05;;;2.50;99.90;;;;;;5055317;28;20619;-59
2022/11/22 07:04:27;;;;;;;25.67;15.45;;;2.50;99.90;;;;;;5055062;28;20261;-59
2022/11/22 07:06:54;;;;;;;30.45;18.38;;;2.60;99.90;;;;;;5053707;28;20436;-59
2022/11/22 07:09:21;;;;;;;25.45;16.42;;;2.60;99.90;;;;;;5053889;28;20217;-59
2022/11/22 07:12:39;;;;;;;28.75;18.60;;;2.60;99.90;;;;;;5053768;28;20296;-58
2022/11/22 07:15:08;;;;;;;20.90;14.35;;;2.60;99.90;;;;;;5030273;28;20594;-58
2022/11/22 07:17:57;;;;;;;25.40;15.60;;;2.60;99.90;;;;;;5054120;28;20293;-58
2022/11/22 07:20:23;;;;;;;22.35;14.50;;;2.60;99.90;;;;;;5053679;28;20186;-59
2022/11/22 07:22:50;;;;;;;26.50;14.90;;;2.60;99.90;;;;;;5054015;28;20205;-59
2022/11/22 07:25:17;;;;;;;22.23;14.68;;;2.60;99.90;;;;;;5054708;28;20575;-59
2022/11/22 07:27:44;;;;;;;23.73;14.73;;;2.60;99.90;;;;;;5054500;28;20197;-59
2022/11/22 07:30:13;;;;;;;22.20;15.23;;;2.60;99.90;;;;;;5054240;28;20213;-58
2022/11/22 07:32:40;;;;;;;26.33;15.32;;;2.70;99.90;;;;;;5054649;28;20205;-60
2022/11/22 07:35:07;;;;;;;24.80;14.35;;;2.70;99.90;;;;;;5053994;28;20728;-57
2022/11/22 07:37:34;;;;;;;25.92;15.32;;;2.80;99.90;;;;;;5054866;28;20209;-59
2022/11/22 07:40:00;;;;;;;25.83;15.95;;;2.80;99.90;;;;;;5054153;28;20670;-58
2022/11/22 07:42:27;;;;;;;24.30;14.23;;;2.90;99.90;;;;;;5054714;28;20208;-59
2022/11/22 07:44:54;;;;;;;22.00;14.38;;;2.90;99.90;;;;;;5055177;28;20225;-60
2022/11/22 07:47:22;;;;;;;22.38;13.85;;;2.90;99.90;;;;;;5053348;28;20233;-60
2022/11/22 07:49:48;;;;;;;23.60;14.45;;;3.00;99.90;;;;;;5053150;28;20221;-57
2022/11/22 07:52:15;;;;;;;23.30;14.20;;;3.10;99.90;;;;;;5052990;28;20205;-59
2022/11/22 07:54:42;;;;;;;21.58;14.40;;;3.10;99.90;;;;;;5053273;28;20229;-59
2022/11/22 07:57:09;;;;;;;28.00;14.40;;;3.20;99.90;;;;;;5053421;28;20201;-59
2022/11/22 07:59:35;;;;;;;23.50;14.45;;;3.20;99.90;;;;;;5053096;28;20198;-57
2022/11/22 08:02:02;;;;;;;29.20;15.65;;;3.30;99.90;;;;;;5053236;28;20201;-59
2022/11/22 08:04:30;;;;;;;22.35;14.25;;;3.30;99.90;;;;;;5052849;28;20226;-58
2022/11/22 08:06:57;;;;;;;21.13;13.65;;;3.40;99.90;;;;;;5053167;28;20205;-58
2022/11/22 08:09:24;;;;;;;22.40;13.15;;;3.40;99.90;;;;;;5052952;28;20216;-58
2022/11/22 08:11:50;;;;;;;21.42;13.35;;;3.50;99.90;;;;;;5053083;28;20201;-58
2022/11/22 08:14:17;;;;;;;23.63;14.38;;;3.50;99.90;;;;;;5052785;28;20705;-58
2022/11/22 08:16:44;;;;;;;21.58;12.13;;;3.60;99.90;;;;;;5052847;28;20201;-59
2022/11/22 08:19:14;;;;;;;18.52;13.25;;;3.70;99.90;;;;;;5053039;28;20201;-59
2022/11/22 08:21:42;;;;;;;17.58;12.93;;;3.70;99.90;;;;;;5052831;28;20190;-58
2022/11/22 08:24:09;;;;;;;18.13;13.60;;;3.80;99.90;;;;;;5052785;28;20231;-58
2022/11/22 08:26:36;;;;;;;18.33;12.10;;;3.80;99.90;;;;;;5053273;28;20202;-60
2022/11/22 08:29:04;;;;;;;17.45;11.57;;;3.90;99.90;;;;;;5052403;28;20206;-59
2022/11/22 08:31:31;;;;;;;22.77;13.68;;;3.90;99.90;;;;;;5054002;28;20331;-58
2022/11/22 08:33:58;;;;;;;22.33;12.57;;;4.00;99.90;;;;;;5072905;28;20225;-59
2022/11/22 08:36:26;;;;;;;18.35;11.93;;;4.00;99.90;;;;;;5072796;28;20212;-58
2022/11/22 08:38:54;;;;;;;18.52;12.32;;;4.00;99.90;;;;;;5072894;28;20745;-59
2022/11/22 08:41:21;;;;;;;20.10;12.15;;;4.10;99.90;;;;;;5072977;28;20213;-58
2022/11/22 08:43:49;;;;;;;16.88;11.93;;;4.10;99.90;;;;;;5072771;28;20601;-57
2022/11/22 08:46:16;;;;;;;19.08;11.30;;;4.10;99.90;;;;;;5073015;28;20205;-57
2022/11/22 08:48:43;;;;;;;18.98;11.25;;;4.20;99.90;;;;;;5065699;28;20205;-58
2022/11/22 08:51:11;;;;;;;22.27;13.57;;;4.20;99.90;;;;;;5045899;28;20217;-59
2022/11/22 08:53:40;;;;;;;16.42;11.32;;;4.20;99.90;;;;;;5055731;28;20228;-59
2022/11/22 08:56:19;;;;;;;14.75;10.98;;;4.30;99.90;;;;;;5060877;28;20689;-57
2022/11/22 08:58:46;;;;;;;20.73;10.50;;;4.30;99.90;;;;;;5048451;28;20228;-61
2022/11/22 09:01:15;;;;;;;17.45;10.80;;;4.40;99.90;;;;;;5057495;28;20193;-57
2022/11/22 09:03:44;;;;;;;15.57;11.13;;;4.50;99.90;;;;;;5062644;28;20217;-58
2022/11/22 09:06:12;;;;;;;14.32;11.23;;;4.50;99.90;;;;;;5057647;28;20198;-58
2022/11/22 09:08:39;;;;;;;16.50;10.82;;;4.60;99.90;;;;;;5054055;28;20198;-58
2022/11/22 09:11:09;;;;;;;15.30;11.18;;;4.70;99.90;;;;;;5064238;28;20705;-58
2022/11/22 09:13:36;;;;;;;15.98;10.50;;;4.70;99.90;;;;;;5066633;28;20223;-59
2022/11/22 09:16:03;;;;;;;15.13;11.35;;;4.80;99.90;;;;;;5041903;28;20198;-58
2022/11/22 09:18:30;;;;;;;14.85;10.90;;;4.90;99.90;;;;;;5053007;28;20205;-59
2022/11/22 09:21:00;;;;;;;17.08;12.38;;;5.00;99.90;;;;;;5076310;28;20204;-58
2022/11/22 09:23:27;;;;;;;13.32;10.10;;;5.00;99.90;;;;;;5070133;28;20225;-58
2022/11/22 09:25:58;;;;;;;15.38;10.55;;;5.00;99.90;;;;;;5056005;28;20202;-58
2022/11/22 09:28:27;;;;;;;15.00;11.43;;;5.00;99.90;;;;;;5056806;28;20206;-59
2022/11/22 09:31:00;;;;;;;12.95;9.88;;;5.10;99.90;;;;;;5060055;28;20220;-58
2022/11/22 09:33:26;;;;;;;15.25;10.35;;;5.20;99.90;;;;;;5073176;28;20224;-58
2022/11/22 09:36:00;;;;;;;15.23;10.05;;;5.30;99.90;;;;;;5075768;28;20262;-58
2022/11/22 09:38:26;;;;;;;16.30;11.02;;;5.50;99.90;;;;;;5075800;28;20185;-57
2022/11/22 09:40:53;;;;;;;14.38;10.38;;;5.70;99.90;;;;;;5075638;28;20578;-57
2022/11/22 09:43:30;;;;;;;13.93;10.65;;;5.80;99.90;;;;;;5075927;28;20223;-58
2022/11/22 09:46:13;;;;;;;15.52;10.70;;;5.80;99.90;;;;;;5075246;28;20185;-55
2022/11/22 09:49:09;;;;;;;12.77;8.77;;;5.90;99.90;;;;;;5075684;28;20189;-57
2022/11/22 09:51:41;;;;;;;14.32;10.27;;;6.10;99.90;;;;;;5075248;28;20628;-57
2022/11/22 09:54:11;;;;;;;13.40;8.40;;;6.20;99.90;;;;;;5075147;28;20307;-57
2022/11/22 09:56:39;;;;;;;11.25;8.90;;;6.30;99.90;;;;;;5075068;28;20211;-57
2022/11/22 09:59:17;;;;;;;11.00;8.63;;;6.40;99.90;;;;;;5075035;28;20623;-58
2022/11/22 10:01:47;;;;;;;10.73;8.13;;;6.50;99.90;;;;;;5074501;28;20667;-57
2022/11/22 10:04:20;;;;;;;14.77;9.90;;;6.60;99.90;;;;;;5074787;28;20225;-57
2022/11/22 10:06:52;;;;;;;9.63;7.40;;;6.70;99.90;;;;;;5074935;28;20272;-59
2022/11/22 10:09:30;;;;;;;11.60;8.23;;;6.80;99.90;;;;;;5074780;28;20193;-58
2022/11/22 10:12:02;;;;;;;16.25;9.38;;;6.90;99.90;;;;;;5074667;28;20211;-58
2022/11/22 10:14:38;;;;;;;10.93;7.65;;;7.00;99.90;;;;;;5074615;28;20711;-56
2022/11/22 10:17:19;;;;;;;9.13;7.57;;;7.10;99.90;;;;;;5074579;28;20192;-58
2022/11/22 10:19:53;;;;;;;9.30;6.95;;;7.20;99.90;;;;;;5074498;28;20188;-58
2022/11/22 10:22:20;;;;;;;10.32;7.57;;;7.20;99.90;;;;;;5074682;28;20255;-57
2022/11/22 10:24:46;;;;;;;10.73;7.57;;;7.20;99.90;;;;;;5081623;22;20236;-62
2022/11/22 10:27:14;;;;;;;8.50;7.70;;;7.20;99.90;;;;;;5056368;28;20689;-61
2022/11/22 10:29:49;;;;;;;8.45;7.15;;;7.20;99.90;;;;;;5055933;28;20299;-62
2022/11/22 10:32:22;;;;;;;10.00;7.63;;;7.30;99.90;;;;;;5055827;28;20205;-62
2022/11/22 10:35:04;;;;;;;9.45;7.97;;;7.30;99.90;;;;;;5055712;28;20218;-62
2022/11/22 10:37:41;;;;;;;10.15;7.80;;;7.30;99.90;;;;;;5055624;28;20590;-62
2022/11/22 10:40:17;;;;;;;10.93;6.93;;;7.30;99.90;;;;;;5055383;28;20186;-62
2022/11/22 10:43:15;;;;;;;9.48;7.05;;;7.40;99.90;;;;;;5055460;28;20192;-62
2022/11/22 10:45:47;;;;;;;8.10;6.68;;;7.50;99.90;;;;;;5049416;28;20221;-62
2022/11/22 10:48:24;;;;;;;9.57;6.63;;;7.60;99.90;;;;;;5055716;28;20197;-62
2022/11/22 10:51:02;;;;;;;6.18;5.35;;;7.60;99.90;;;;;;5056089;28;20213;-62
2022/11/22 10:53:44;;;;;;;11.45;7.43;;;7.60;99.90;;;;;;5054904;28;20277;-61
2022/11/22 10:56:19;;;;;;;7.13;6.40;;;7.70;99.90;;;;;;5054910;28;20512;-61
2022/11/22 10:59:00;;;;;;;8.90;5.65;;;7.80;99.90;;;;;;5055543;28;20536;-61
2022/11/22 11:01:36;;;;;;;8.98;6.20;;;7.80;99.90;;;;;;5055576;28;20182;-61
2022/11/22 11:04:05;;;;;;;6.75;5.82;;;7.90;99.90;;;;;;5055165;28;20228;-62
2022/11/22 11:06:38;;;;;;;5.63;4.72;;;8.00;99.90;;;;;;5055735;28;20201;-63
2022/11/22 11:09:10;;;;;;;8.35;6.35;;;8.00;99.90;;;;;;5056503;28;20205;-62
2022/11/22 11:11:39;;;;;;;8.15;5.68;;;8.10;99.90;;;;;;5055145;28;20206;-63
2022/11/22 11:14:13;;;;;;;8.30;5.43;;;8.10;99.90;;;;;;5055349;28;20221;-63
2022/11/22 11:16:41;;;;;;;5.93;4.63;;;8.20;99.90;;;;;;5055486;28;20193;-63
2022/11/22 11:19:16;;;;;;;7.45;5.47;;;8.30;99.90;;;;;;5054141;28;20291;-62
2022/11/22 11:21:44;;;;;;;7.32;5.47;;;8.30;99.90;;;;;;5054697;28;20249;-63
2022/11/22 11:24:13;;;;;;;9.20;5.65;;;8.30;99.90;;;;;;5053764;28;20684;-60
2022/11/22 11:26:42;;;;;;;8.35;6.00;;;8.40;99.90;;;;;;5054450;28;20247;-60
2022/11/22 11:29:43;;;;;;;7.43;5.00;;;8.50;99.90;;;;;;5054547;28;20212;-63
2022/11/22 11:32:13;;;;;;;7.00;4.90;;;8.60;99.90;;;;;;4973636;28;20208;-61
2022/11/22 11:34:46;;;;;;;12.43;5.70;;;8.60;99.90;;;;;;4973800;28;20220;-62
2022/11/22 11:37:22;;;;;;;6.65;5.28;;;8.60;99.90;;;;;;5015991;28;20201;-63
2022/11/22 11:39:49;;;;;;;13.98;6.07;;;8.60;99.90;;;;;;5056322;28;20269;-61
2022/11/22 11:42:25;;;;;;;7.35;4.40;;;8.70;99.90;;;;;;5055206;28;20214;-62
2022/11/22 11:44:52;;;;;;;7.32;5.25;;;8.70;99.90;;;;;;5056706;28;20282;-61
2022/11/22 11:47:32;;;;;;;5.65;4.65;;;8.80;99.90;;;;;;5056178;28;20206;-61
2022/11/22 11:49:59;;;;;;;7.68;6.22;;;8.80;99.90;;;;;;5055370;28;20285;-61
2022/11/22 11:52:27;;;;;;;6.43;5.70;;;8.70;99.90;;;;;;5054676;28;20222;-61
2022/11/22 11:54:57;;;;;;;7.13;5.15;;;8.70;99.90;;;;;;5054291;28;20217;-62
2022/11/22 11:57:29;;;;;;;7.88;5.70;;;8.70;99.90;;;;;;5058006;28;20208;-64
2022/11/22 11:59:58;;;;;;;5.43;4.93;;;8.70;99.90;;;;;;5056235;28;20186;-62
2022/11/22 12:02:33;;;;;;;9.35;6.07;;;8.70;99.90;;;;;;5055215;28;20634;-62
2022/11/22 12:05:02;;;;;;;7.53;5.35;;;8.70;99.90;;;;;;5055191;28;20217;-61
2022/11/22 12:07:39;;;;;;;7.40;5.50;;;8.70;99.90;;;;;;5055631;28;20209;-62
2022/11/22 12:10:31;;;;;;;6.60;5.53;;;8.70;99.90;;;;;;5055828;28;20344;-62
2022/11/22 12:13:03;;;;;;;7.03;4.80;;;8.80;99.90;;;;;;5054383;28;20192;-61
2022/11/22 12:15:39;;;;;;;5.82;4.55;;;8.80;99.90;;;;;;5054423;28;20231;-61
2022/11/22 12:18:23;;;;;;;9.18;4.68;;;8.80;99.90;;;;;;5054105;28;20205;-62
2022/11/22 12:20:55;;;;;;;5.40;4.15;;;8.80;99.90;;;;;;5055672;28;20182;-61
2022/11/22 12:23:29;;;;;;;6.72;4.30;;;8.80;99.90;;;;;;5056512;28;20208;-62
2022/11/22 12:25:57;;;;;;;8.48;4.70;;;8.80;99.90;;;;;;5058535;28;20208;-60
2022/11/22 12:28:26;;;;;;;10.77;4.80;;;8.80;99.90;;;;;;5060072;28;20205;-61
2022/11/22 12:30:56;;;;;;;7.78;4.30;;;8.80;99.90;;;;;;5060460;28;20224;-59
2022/11/22 12:33:31;;;;;;;6.82;4.25;;;8.80;99.90;;;;;;5061815;28;20190;-62
2022/11/22 12:35:58;;;;;;;5.00;4.50;;;8.90;99.90;;;;;;5060915;28;20189;-60
2022/11/22 12:38:31;;;;;;;4.70;4.05;;;8.90;99.90;;;;;;5060123;28;20205;-62
2022/11/22 12:41:02;;;;;;;5.22;4.50;;;8.90;99.90;;;;;;5059706;28;20193;-61
2022/11/22 12:43:36;;;;;;;7.50;5.65;;;8.90;99.90;;;;;;5058152;28;20635;-61
2022/11/22 12:46:06;;;;;;;5.07;4.53;;;8.90;99.90;;;;;;5057990;28;20186;-62
2022/11/22 12:48:38;;;;;;;8.43;5.00;;;8.90;99.90;;;;;;5057020;28;20421;-63
2022/11/22 12:51:12;;;;;;;7.43;4.90;;;8.90;99.90;;;;;;5056332;28;20428;-61
2022/11/22 12:53:42;;;;;;;4.85;4.40;;;8.90;99.90;;;;;;5057834;28;20242;-61
2022/11/22 12:56:19;;;;;;;8.07;4.90;;;8.80;99.90;;;;;;5057269;28;20248;-61
2022/11/22 12:58:54;;;;;;;7.53;4.80;;;8.70;99.90;;;;;;5057478;28;20196;-62
2022/11/22 13:01:25;;;;;;;8.57;4.53;;;8.70;99.90;;;;;;5057484;28;20181;-62
2022/11/22 13:03:57;;;;;;;8.02;4.50;;;8.60;99.90;;;;;;5057479;28;20417;-61
2022/11/22 13:06:29;;;;;;;8.23;3.80;;;8.60;99.90;;;;;;5059432;28;20186;-62